sensor_id;sensor_type;location;lat;lon;timestamp;P1;durP1;ratioP1;P2;durP2;ratioP2
37905;SDS011;23739;51.448;6.674;2022-08-19T00:00:20;6.63;;;5.22;;
37905;SDS011;23739;51.448;6.674;2022-08-19T00:02:46;5.57;;;5.07;;
37905;SDS011;23739;51.448;6.674;2022-08-19T00:05:13;6.13;;;5.40;;
37905;SDS011;23739;51.448;6.674;2022-08-19T00:07:40;5.20;;;4.70;;
37905;SDS011;23739;51.448;6.674;2022-08-19T00:10:08;8.27;;;5.53;;
37905;SDS011;23739;51.448;6.674;2022-08-19T00:12:34;6.65;;;6.05;;
37905;SDS011;23739;51.448;6.674;2022-08-19T00:15:01;7.00;;;5.50;;
37905;SDS011;23739;51.448;6.674;2022-08-19T00:17:27;6.03;;;5.40;;
37905;SDS011;23739;51.448;6.674;2022-08-19T00:19:53;7.22;;;5.35;;
37905;SDS011;23739;51.448;6.674;2022-08-19T00:22:19;7.57;;;6.50;;
37905;SDS011;23739;51.448;6.674;2022-08-19T00:24:46;8.27;;;6.20;;
37905;SDS011;23739;51.448;6.674;2022-08-19T00:27:12;6.80;;;5.72;;
37905;SDS011;23739;51.448;6.674;2022-08-19T00:29:38;6.30;;;5.70;;
37905;SDS011;23739;51.448;6.674;2022-08-19T00:32:05;7.72;;;6.80;;
37905;SDS011;23739;51.448;6.674;2022-08-19T00:34:31;7.22;;;5.90;;
37905;SDS011;23739;51.448;6.674;2022-08-19T00:36:57;6.05;;;5.45;;
37905;SDS011;23739;51.448;6.674;2022-08-19T00:39:24;8.07;;;5.47;;
37905;SDS011;23739;51.448;6.674;2022-08-19T00:41:50;6.13;;;5.53;;
37905;SDS011;23739;51.448;6.674;2022-08-19T00:46:45;5.90;;;5.28;;
37905;SDS011;23739;51.448;6.674;2022-08-19T00:49:57;5.65;;;4.95;;
37905;SDS011;23739;51.448;6.674;2022-08-19T00:52:15;8.23;;;5.90;;
37905;SDS011;23739;51.448;6.674;2022-08-19T00:54:42;6.35;;;5.75;;
37905;SDS011;23739;51.448;6.674;2022-08-19T00:57:10;6.82;;;6.07;;
37905;SDS011;23739;51.448;6.674;2022-08-19T00:59:38;6.70;;;6.05;;
37905;SDS011;23739;51.448;6.674;2022-08-19T01:02:05;6.20;;;5.60;;
37905;SDS011;23739;51.448;6.674;2022-08-19T01:04:31;9.43;;;6.30;;
37905;SDS011;23739;51.448;6.674;2022-08-19T01:06:57;8.18;;;6.22;;
37905;SDS011;23739;51.448;6.674;2022-08-19T01:09:24;6.90;;;6.03;;
37905;SDS011;23739;51.448;6.674;2022-08-19T01:11:50;6.15;;;5.35;;
37905;SDS011;23739;51.448;6.674;2022-08-19T01:14:16;7.38;;;6.00;;
37905;SDS011;23739;51.448;6.674;2022-08-19T01:16:44;6.97;;;5.43;;
37905;SDS011;23739;51.448;6.674;2022-08-19T01:19:57;6.03;;;5.40;;
37905;SDS011;23739;51.448;6.674;2022-08-19T01:22:00;9.77;;;6.50;;
37905;SDS011;23739;51.448;6.674;2022-08-19T01:24:28;8.27;;;6.05;;
37905;SDS011;23739;51.448;6.674;2022-08-19T01:29:49;10.15;;;7.80;;
37905;SDS011;23739;51.448;6.674;2022-08-19T01:32:16;8.40;;;7.60;;
37905;SDS011;23739;51.448;6.674;2022-08-19T01:34:42;10.45;;;7.85;;
37905;SDS011;23739;51.448;6.674;2022-08-19T01:37:12;11.13;;;9.20;;
37905;SDS011;23739;51.448;6.674;2022-08-19T01:39:39;13.20;;;9.80;;
37905;SDS011;23739;51.448;6.674;2022-08-19T01:42:06;10.98;;;9.77;;
37905;SDS011;23739;51.448;6.674;2022-08-19T01:44:36;11.23;;;10.13;;
37905;SDS011;23739;51.448;6.674;2022-08-19T01:47:02;9.35;;;7.50;;
37905;SDS011;23739;51.448;6.674;2022-08-19T01:49:29;8.35;;;7.55;;
37905;SDS011;23739;51.448;6.674;2022-08-19T01:51:55;9.68;;;7.47;;
37905;SDS011;23739;51.448;6.674;2022-08-19T01:54:22;9.20;;;6.82;;
37905;SDS011;23739;51.448;6.674;2022-08-19T01:56:49;10.93;;;8.98;;
37905;SDS011;23739;51.448;6.674;2022-08-19T01:59:17;11.15;;;9.32;;
37905;SDS011;23739;51.448;6.674;2022-08-19T02:01:44;8.20;;;7.28;;
37905;SDS011;23739;51.448;6.674;2022-08-19T02:04:10;8.60;;;7.53;;
37905;SDS011;23739;51.448;6.674;2022-08-19T02:06:37;9.50;;;7.03;;
37905;SDS011;23739;51.448;6.674;2022-08-19T02:09:04;8.95;;;7.35;;
37905;SDS011;23739;51.448;6.674;2022-08-19T02:11:32;9.95;;;8.95;;
37905;SDS011;23739;51.448;6.674;2022-08-19T02:13:58;12.05;;;9.52;;
37905;SDS011;23739;51.448;6.674;2022-08-19T02:16:25;11.40;;;9.00;;
37905;SDS011;23739;51.448;6.674;2022-08-19T02:18:51;8.57;;;6.82;;
37905;SDS011;23739;51.448;6.674;2022-08-19T02:21:18;10.27;;;8.35;;
37905;SDS011;23739;51.448;6.674;2022-08-19T02:23:45;10.20;;;9.02;;
37905;SDS011;23739;51.448;6.674;2022-08-19T02:26:11;11.13;;;9.27;;
37905;SDS011;23739;51.448;6.674;2022-08-19T02:28:37;10.20;;;9.02;;
37905;SDS011;23739;51.448;6.674;2022-08-19T02:31:07;10.10;;;9.10;;
37905;SDS011;23739;51.448;6.674;2022-08-19T02:33:34;8.93;;;7.82;;
37905;SDS011;23739;51.448;6.674;2022-08-19T02:36:02;10.88;;;7.80;;
37905;SDS011;23739;51.448;6.674;2022-08-19T02:38:28;10.32;;;7.82;;
37905;SDS011;23739;51.448;6.674;2022-08-19T02:40:59;11.40;;;9.43;;
37905;SDS011;23739;51.448;6.674;2022-08-19T02:43:26;11.75;;;9.82;;
37905;SDS011;23739;51.448;6.674;2022-08-19T02:45:53;11.05;;;9.90;;
37905;SDS011;23739;51.448;6.674;2022-08-19T02:48:19;12.48;;;9.10;;
37905;SDS011;23739;51.448;6.674;2022-08-19T02:50:46;12.90;;;9.65;;
37905;SDS011;23739;51.448;6.674;2022-08-19T02:53:13;12.25;;;9.30;;
37905;SDS011;23739;51.448;6.674;2022-08-19T02:55:46;12.63;;;8.95;;
37905;SDS011;23739;51.448;6.674;2022-08-19T02:58:12;9.40;;;8.40;;
37905;SDS011;23739;51.448;6.674;2022-08-19T03:00:46;10.50;;;9.25;;
37905;SDS011;23739;51.448;6.674;2022-08-19T03:03:13;12.23;;;10.13;;
37905;SDS011;23739;51.448;6.674;2022-08-19T03:05:39;14.63;;;12.07;;
37905;SDS011;23739;51.448;6.674;2022-08-19T03:08:05;13.98;;;12.27;;
37905;SDS011;23739;51.448;6.674;2022-08-19T03:10:33;14.23;;;12.05;;
37905;SDS011;23739;51.448;6.674;2022-08-19T03:12:59;14.27;;;12.75;;
37905;SDS011;23739;51.448;6.674;2022-08-19T03:15:25;17.30;;;13.77;;
37905;SDS011;23739;51.448;6.674;2022-08-19T03:17:51;14.30;;;12.43;;
37905;SDS011;23739;51.448;6.674;2022-08-19T03:20:17;18.15;;;15.02;;
37905;SDS011;23739;51.448;6.674;2022-08-19T03:22:44;16.77;;;13.60;;
37905;SDS011;23739;51.448;6.674;2022-08-19T03:25:10;16.13;;;13.40;;
37905;SDS011;23739;51.448;6.674;2022-08-19T03:27:36;14.32;;;12.82;;
37905;SDS011;23739;51.448;6.674;2022-08-19T03:30:03;15.23;;;13.05;;
37905;SDS011;23739;51.448;6.674;2022-08-19T03:32:31;16.77;;;14.45;;
37905;SDS011;23739;51.448;6.674;2022-08-19T03:34:57;19.88;;;15.13;;
37905;SDS011;23739;51.448;6.674;2022-08-19T03:37:23;21.23;;;15.40;;
37905;SDS011;23739;51.448;6.674;2022-08-19T03:39:51;16.75;;;13.65;;
37905;SDS011;23739;51.448;6.674;2022-08-19T03:42:17;20.08;;;14.75;;
37905;SDS011;23739;51.448;6.674;2022-08-19T03:44:43;18.80;;;14.70;;
37905;SDS011;23739;51.448;6.674;2022-08-19T03:47:09;15.82;;;12.65;;
37905;SDS011;23739;51.448;6.674;2022-08-19T03:49:41;18.40;;;15.83;;
37905;SDS011;23739;51.448;6.674;2022-08-19T03:52:07;22.45;;;17.58;;
37905;SDS011;23739;51.448;6.674;2022-08-19T03:54:33;25.23;;;18.83;;
37905;SDS011;23739;51.448;6.674;2022-08-19T03:56:59;25.60;;;19.30;;
37905;SDS011;23739;51.448;6.674;2022-08-19T03:59:30;27.50;;;20.75;;
37905;SDS011;23739;51.448;6.674;2022-08-19T04:01:58;20.13;;;17.23;;
37905;SDS011;23739;51.448;6.674;2022-08-19T04:04:24;23.83;;;18.42;;
37905;SDS011;23739;51.448;6.674;2022-08-19T04:06:51;18.45;;;16.20;;
37905;SDS011;23739;51.448;6.674;2022-08-19T04:09:18;21.42;;;17.70;;
37905;SDS011;23739;51.448;6.674;2022-08-19T04:11:49;28.88;;;22.98;;
37905;SDS011;23739;51.448;6.674;2022-08-19T04:14:19;25.98;;;21.52;;
37905;SDS011;23739;51.448;6.674;2022-08-19T04:16:46;27.65;;;19.88;;
37905;SDS011;23739;51.448;6.674;2022-08-19T04:19:14;25.42;;;20.85;;
37905;SDS011;23739;51.448;6.674;2022-08-19T04:21:40;27.05;;;18.90;;
37905;SDS011;23739;51.448;6.674;2022-08-19T04:24:08;24.48;;;18.42;;
37905;SDS011;23739;51.448;6.674;2022-08-19T04:26:36;26.13;;;18.48;;
37905;SDS011;23739;51.448;6.674;2022-08-19T04:29:07;18.67;;;15.50;;
37905;SDS011;23739;51.448;6.674;2022-08-19T04:31:34;18.58;;;16.20;;
37905;SDS011;23739;51.448;6.674;2022-08-19T04:34:01;20.73;;;16.58;;
37905;SDS011;23739;51.448;6.674;2022-08-19T04:36:32;25.98;;;16.15;;
37905;SDS011;23739;51.448;6.674;2022-08-19T04:39:00;17.27;;;14.70;;
37905;SDS011;23739;51.448;6.674;2022-08-19T04:41:27;22.92;;;16.63;;
37905;SDS011;23739;51.448;6.674;2022-08-19T04:44:12;23.05;;;18.48;;
37905;SDS011;23739;51.448;6.674;2022-08-19T04:46:39;29.23;;;22.20;;
37905;SDS011;23739;51.448;6.674;2022-08-19T04:49:06;26.30;;;20.70;;
37905;SDS011;23739;51.448;6.674;2022-08-19T04:51:33;22.52;;;17.45;;
37905;SDS011;23739;51.448;6.674;2022-08-19T04:54:03;24.77;;;18.58;;
37905;SDS011;23739;51.448;6.674;2022-08-19T04:56:29;21.95;;;17.55;;
37905;SDS011;23739;51.448;6.674;2022-08-19T04:58:56;22.42;;;17.83;;
37905;SDS011;23739;51.448;6.674;2022-08-19T05:01:26;23.98;;;19.27;;
37905;SDS011;23739;51.448;6.674;2022-08-19T05:03:53;21.98;;;18.45;;
37905;SDS011;23739;51.448;6.674;2022-08-19T05:06:20;21.98;;;17.83;;
37905;SDS011;23739;51.448;6.674;2022-08-19T05:08:47;29.85;;;21.42;;
37905;SDS011;23739;51.448;6.674;2022-08-19T05:11:14;25.08;;;21.25;;
37905;SDS011;23739;51.448;6.674;2022-08-19T05:13:42;28.40;;;22.30;;
37905;SDS011;23739;51.448;6.674;2022-08-19T05:16:09;25.65;;;21.05;;
37905;SDS011;23739;51.448;6.674;2022-08-19T05:18:35;29.23;;;19.90;;
37905;SDS011;23739;51.448;6.674;2022-08-19T05:21:20;29.52;;;22.90;;
37905;SDS011;23739;51.448;6.674;2022-08-19T05:24:05;31.52;;;23.85;;
37905;SDS011;23739;51.448;6.674;2022-08-19T05:26:35;27.48;;;22.55;;
37905;SDS011;23739;51.448;6.674;2022-08-19T05:29:01;33.15;;;25.50;;
37905;SDS011;23739;51.448;6.674;2022-08-19T05:31:28;29.00;;;23.83;;
37905;SDS011;23739;51.448;6.674;2022-08-19T05:33:54;37.58;;;27.45;;
37905;SDS011;23739;51.448;6.674;2022-08-19T05:36:23;35.33;;;27.00;;
37905;SDS011;23739;51.448;6.674;2022-08-19T05:38:49;35.63;;;27.60;;
37905;SDS011;23739;51.448;6.674;2022-08-19T05:41:15;37.67;;;27.30;;
37905;SDS011;23739;51.448;6.674;2022-08-19T05:43:42;37.10;;;27.77;;
37905;SDS011;23739;51.448;6.674;2022-08-19T05:46:08;36.20;;;28.38;;
37905;SDS011;23739;51.448;6.674;2022-08-19T05:48:41;35.05;;;26.90;;
37905;SDS011;23739;51.448;6.674;2022-08-19T05:51:07;36.00;;;27.67;;
37905;SDS011;23739;51.448;6.674;2022-08-19T05:53:34;34.92;;;27.10;;
37905;SDS011;23739;51.448;6.674;2022-08-19T05:56:05;41.95;;;29.70;;
37905;SDS011;23739;51.448;6.674;2022-08-19T05:58:31;39.22;;;30.40;;
37905;SDS011;23739;51.448;6.674;2022-08-19T06:00:58;39.92;;;30.63;;
37905;SDS011;23739;51.448;6.674;2022-08-19T06:03:30;37.55;;;30.77;;
37905;SDS011;23739;51.448;6.674;2022-08-19T06:05:56;37.70;;;29.75;;
37905;SDS011;23739;51.448;6.674;2022-08-19T06:08:24;37.38;;;31.20;;
37905;SDS011;23739;51.448;6.674;2022-08-19T06:10:50;43.88;;;33.95;;
37905;SDS011;23739;51.448;6.674;2022-08-19T06:13:16;43.75;;;34.35;;
37905;SDS011;23739;51.448;6.674;2022-08-19T06:15:44;44.22;;;32.63;;
37905;SDS011;23739;51.448;6.674;2022-08-19T06:18:11;46.00;;;33.80;;
37905;SDS011;23739;51.448;6.674;2022-08-19T06:20:37;39.47;;;32.22;;
37905;SDS011;23739;51.448;6.674;2022-08-19T06:23:04;41.05;;;31.50;;
37905;SDS011;23739;51.448;6.674;2022-08-19T06:25:30;41.00;;;33.72;;
37905;SDS011;23739;51.448;6.674;2022-08-19T06:27:56;43.63;;;32.28;;
37905;SDS011;23739;51.448;6.674;2022-08-19T06:30:22;46.92;;;34.00;;
37905;SDS011;23739;51.448;6.674;2022-08-19T06:32:48;41.15;;;34.75;;
37905;SDS011;23739;51.448;6.674;2022-08-19T06:35:15;40.92;;;34.28;;
37905;SDS011;23739;51.448;6.674;2022-08-19T06:37:41;43.25;;;35.40;;
37905;SDS011;23739;51.448;6.674;2022-08-19T06:40:08;42.90;;;33.35;;
37905;SDS011;23739;51.448;6.674;2022-08-19T06:42:36;44.90;;;34.83;;
37905;SDS011;23739;51.448;6.674;2022-08-19T06:45:06;43.10;;;33.78;;
37905;SDS011;23739;51.448;6.674;2022-08-19T06:47:33;46.65;;;34.88;;
37905;SDS011;23739;51.448;6.674;2022-08-19T06:49:59;41.95;;;33.67;;
37905;SDS011;23739;51.448;6.674;2022-08-19T06:52:32;49.00;;;36.45;;
37905;SDS011;23739;51.448;6.674;2022-08-19T06:54:59;45.17;;;34.03;;
37905;SDS011;23739;51.448;6.674;2022-08-19T06:57:26;45.45;;;34.92;;
37905;SDS011;23739;51.448;6.674;2022-08-19T06:59:52;48.10;;;35.53;;
37905;SDS011;23739;51.448;6.674;2022-08-19T07:02:19;43.90;;;35.35;;
37905;SDS011;23739;51.448;6.674;2022-08-19T07:04:46;47.65;;;37.70;;
37905;SDS011;23739;51.448;6.674;2022-08-19T07:07:13;49.60;;;35.80;;
37905;SDS011;23739;51.448;6.674;2022-08-19T07:09:41;41.42;;;32.38;;
37905;SDS011;23739;51.448;6.674;2022-08-19T07:12:09;51.22;;;36.50;;
37905;SDS011;23739;51.448;6.674;2022-08-19T07:14:35;43.33;;;34.40;;
37905;SDS011;23739;51.448;6.674;2022-08-19T07:17:03;40.95;;;31.33;;
37905;SDS011;23739;51.448;6.674;2022-08-19T07:19:29;38.55;;;31.00;;
37905;SDS011;23739;51.448;6.674;2022-08-19T07:21:56;37.78;;;30.75;;
37905;SDS011;23739;51.448;6.674;2022-08-19T07:24:24;43.38;;;32.35;;
37905;SDS011;23739;51.448;6.674;2022-08-19T07:26:52;41.47;;;29.77;;
37905;SDS011;23739;51.448;6.674;2022-08-19T07:29:19;39.13;;;30.38;;
37905;SDS011;23739;51.448;6.674;2022-08-19T07:31:47;42.30;;;31.20;;
37905;SDS011;23739;51.448;6.674;2022-08-19T07:34:13;40.92;;;28.40;;
37905;SDS011;23739;51.448;6.674;2022-08-19T07:36:40;38.90;;;28.75;;
37905;SDS011;23739;51.448;6.674;2022-08-19T07:39:08;32.95;;;24.50;;
37905;SDS011;23739;51.448;6.674;2022-08-19T07:41:35;33.20;;;23.90;;
37905;SDS011;23739;51.448;6.674;2022-08-19T07:44:02;37.80;;;23.17;;
37905;SDS011;23739;51.448;6.674;2022-08-19T07:46:31;24.85;;;20.05;;
37905;SDS011;23739;51.448;6.674;2022-08-19T07:48:58;27.17;;;19.30;;
37905;SDS011;23739;51.448;6.674;2022-08-19T07:51:25;25.67;;;19.15;;
37905;SDS011;23739;51.448;6.674;2022-08-19T07:53:52;30.95;;;21.00;;
37905;SDS011;23739;51.448;6.674;2022-08-19T07:56:19;28.73;;;20.50;;
37905;SDS011;23739;51.448;6.674;2022-08-19T07:58:46;28.42;;;19.23;;
37905;SDS011;23739;51.448;6.674;2022-08-19T08:01:17;23.05;;;17.25;;
37905;SDS011;23739;51.448;6.674;2022-08-19T08:03:43;18.52;;;15.38;;
37905;SDS011;23739;51.448;6.674;2022-08-19T08:06:28;23.55;;;17.20;;
37905;SDS011;23739;51.448;6.674;2022-08-19T08:09:15;23.77;;;17.10;;
37905;SDS011;23739;51.448;6.674;2022-08-19T08:11:55;26.83;;;17.70;;
37905;SDS011;23739;51.448;6.674;2022-08-19T08:14:29;28.80;;;18.98;;
37905;SDS011;23739;51.448;6.674;2022-08-19T08:16:56;26.70;;;19.08;;
37905;SDS011;23739;51.448;6.674;2022-08-19T08:19:24;28.90;;;19.33;;
37905;SDS011;23739;51.448;6.674;2022-08-19T08:21:51;30.95;;;20.25;;
37905;SDS011;23739;51.448;6.674;2022-08-19T08:24:17;25.45;;;18.23;;
37905;SDS011;23739;51.448;6.674;2022-08-19T08:26:45;25.75;;;18.58;;
37905;SDS011;23739;51.448;6.674;2022-08-19T08:29:11;25.95;;;17.70;;
37905;SDS011;23739;51.448;6.674;2022-08-19T08:31:39;27.55;;;19.45;;
37905;SDS011;23739;51.448;6.674;2022-08-19T08:34:06;29.00;;;20.23;;
37905;SDS011;23739;51.448;6.674;2022-08-19T08:36:32;30.48;;;21.60;;
37905;SDS011;23739;51.448;6.674;2022-08-19T08:39:01;30.48;;;21.77;;
37905;SDS011;23739;51.448;6.674;2022-08-19T08:43:54;28.02;;;19.08;;
37905;SDS011;23739;51.448;6.674;2022-08-19T08:46:35;32.45;;;20.58;;
37905;SDS011;23739;51.448;6.674;2022-08-19T08:49:14;30.38;;;22.35;;
37905;SDS011;23739;51.448;6.674;2022-08-19T08:51:44;28.30;;;21.20;;
37905;SDS011;23739;51.448;6.674;2022-08-19T08:54:14;22.63;;;17.08;;
37905;SDS011;23739;51.448;6.674;2022-08-19T08:56:41;28.42;;;20.58;;
37905;SDS011;23739;51.448;6.674;2022-08-19T08:59:10;25.83;;;19.52;;
37905;SDS011;23739;51.448;6.674;2022-08-19T09:01:38;30.40;;;21.23;;
37905;SDS011;23739;51.448;6.674;2022-08-19T09:04:05;29.77;;;21.55;;
37905;SDS011;23739;51.448;6.674;2022-08-19T09:07:08;25.17;;;17.98;;
37905;SDS011;23739;51.448;6.674;2022-08-19T09:09:30;23.58;;;17.73;;
37905;SDS011;23739;51.448;6.674;2022-08-19T09:12:08;22.88;;;16.45;;
37905;SDS011;23739;51.448;6.674;2022-08-19T09:17:07;27.42;;;19.70;;
37905;SDS011;23739;51.448;6.674;2022-08-19T09:19:34;30.48;;;20.85;;
37905;SDS011;23739;51.448;6.674;2022-08-19T09:22:01;26.00;;;19.92;;
37905;SDS011;23739;51.448;6.674;2022-08-19T09:24:27;29.23;;;21.85;;
37905;SDS011;23739;51.448;6.674;2022-08-19T09:26:53;28.30;;;21.65;;
37905;SDS011;23739;51.448;6.674;2022-08-19T09:29:20;26.92;;;20.13;;
37905;SDS011;23739;51.448;6.674;2022-08-19T09:31:46;26.35;;;19.13;;
37905;SDS011;23739;51.448;6.674;2022-08-19T09:34:12;32.63;;;21.30;;
37905;SDS011;23739;51.448;6.674;2022-08-19T09:36:38;22.85;;;17.75;;
37905;SDS011;23739;51.448;6.674;2022-08-19T09:39:04;20.92;;;14.93;;
37905;SDS011;23739;51.448;6.674;2022-08-19T09:41:31;26.52;;;17.60;;
37905;SDS011;23739;51.448;6.674;2022-08-19T09:43:58;24.30;;;16.50;;
37905;SDS011;23739;51.448;6.674;2022-08-19T09:46:26;18.55;;;13.27;;
37905;SDS011;23739;51.448;6.674;2022-08-19T09:48:53;15.32;;;12.85;;
37905;SDS011;23739;51.448;6.674;2022-08-19T09:51:23;26.23;;;17.73;;
37905;SDS011;23739;51.448;6.674;2022-08-19T09:53:50;23.38;;;17.75;;
37905;SDS011;23739;51.448;6.674;2022-08-19T09:56:17;24.20;;;18.38;;
37905;SDS011;23739;51.448;6.674;2022-08-19T09:58:44;20.23;;;16.77;;
37905;SDS011;23739;51.448;6.674;2022-08-19T10:01:16;29.88;;;19.35;;
37905;SDS011;23739;51.448;6.674;2022-08-19T10:03:42;21.38;;;17.33;;
37905;SDS011;23739;51.448;6.674;2022-08-19T10:06:09;25.13;;;18.45;;
37905;SDS011;23739;51.448;6.674;2022-08-19T10:08:35;23.25;;;18.52;;
37905;SDS011;23739;51.448;6.674;2022-08-19T10:11:03;20.13;;;14.65;;
37905;SDS011;23739;51.448;6.674;2022-08-19T10:13:30;22.52;;;15.48;;
37905;SDS011;23739;51.448;6.674;2022-08-19T10:16:02;18.92;;;15.43;;
37905;SDS011;23739;51.448;6.674;2022-08-19T10:18:28;15.30;;;13.43;;
37905;SDS011;23739;51.448;6.674;2022-08-19T10:21:02;19.30;;;14.32;;
37905;SDS011;23739;51.448;6.674;2022-08-19T10:23:32;20.77;;;15.07;;
37905;SDS011;23739;51.448;6.674;2022-08-19T10:26:02;17.10;;;13.57;;
37905;SDS011;23739;51.448;6.674;2022-08-19T10:28:28;14.88;;;11.60;;
37905;SDS011;23739;51.448;6.674;2022-08-19T10:30:54;15.32;;;12.55;;
37905;SDS011;23739;51.448;6.674;2022-08-19T10:33:20;16.58;;;11.10;;
37905;SDS011;23739;51.448;6.674;2022-08-19T10:35:47;13.63;;;10.88;;
37905;SDS011;23739;51.448;6.674;2022-08-19T10:38:14;17.23;;;12.23;;
37905;SDS011;23739;51.448;6.674;2022-08-19T10:40:40;16.23;;;12.77;;
37905;SDS011;23739;51.448;6.674;2022-08-19T10:43:06;12.95;;;11.13;;
37905;SDS011;23739;51.448;6.674;2022-08-19T10:45:32;12.77;;;10.23;;
37905;SDS011;23739;51.448;6.674;2022-08-19T10:47:58;15.48;;;9.85;;
37905;SDS011;23739;51.448;6.674;2022-08-19T10:50:24;13.15;;;11.43;;
37905;SDS011;23739;51.448;6.674;2022-08-19T10:53:09;11.57;;;9.27;;
37905;SDS011;23739;51.448;6.674;2022-08-19T10:55:35;13.55;;;10.27;;
37905;SDS011;23739;51.448;6.674;2022-08-19T10:58:21;15.10;;;11.13;;
37905;SDS011;23739;51.448;6.674;2022-08-19T11:00:52;20.05;;;10.80;;
37905;SDS011;23739;51.448;6.674;2022-08-19T11:03:19;12.55;;;10.30;;
37905;SDS011;23739;51.448;6.674;2022-08-19T11:05:45;9.35;;;8.43;;
37905;SDS011;23739;51.448;6.674;2022-08-19T11:08:11;8.95;;;7.82;;
37905;SDS011;23739;51.448;6.674;2022-08-19T11:10:41;10.93;;;8.85;;
37905;SDS011;23739;51.448;6.674;2022-08-19T11:13:08;13.18;;;8.93;;
37905;SDS011;23739;51.448;6.674;2022-08-19T11:15:34;13.02;;;10.18;;
37905;SDS011;23739;51.448;6.674;2022-08-19T11:18:00;11.05;;;9.80;;
37905;SDS011;23739;51.448;6.674;2022-08-19T11:20:26;14.13;;;10.25;;
37905;SDS011;23739;51.448;6.674;2022-08-19T11:22:52;14.63;;;10.77;;
37905;SDS011;23739;51.448;6.674;2022-08-19T11:25:18;13.77;;;8.98;;
37905;SDS011;23739;51.448;6.674;2022-08-19T11:27:44;10.52;;;8.60;;
37905;SDS011;23739;51.448;6.674;2022-08-19T11:30:12;17.55;;;9.55;;
37905;SDS011;23739;51.448;6.674;2022-08-19T11:32:42;11.45;;;7.38;;
37905;SDS011;23739;51.448;6.674;2022-08-19T11:35:08;8.98;;;8.07;;
37905;SDS011;23739;51.448;6.674;2022-08-19T11:37:36;8.82;;;7.93;;
37905;SDS011;23739;51.448;6.674;2022-08-19T11:40:04;7.70;;;6.15;;
37905;SDS011;23739;51.448;6.674;2022-08-19T11:42:30;8.18;;;6.75;;
37905;SDS011;23739;51.448;6.674;2022-08-19T11:45:15;10.00;;;8.55;;
37905;SDS011;23739;51.448;6.674;2022-08-19T11:47:41;11.30;;;9.02;;
37905;SDS011;23739;51.448;6.674;2022-08-19T11:50:07;12.98;;;7.45;;
37905;SDS011;23739;51.448;6.674;2022-08-19T11:52:34;9.25;;;7.00;;
37905;SDS011;23739;51.448;6.674;2022-08-19T11:55:01;8.07;;;6.82;;
37905;SDS011;23739;51.448;6.674;2022-08-19T11:57:27;10.80;;;7.70;;
37905;SDS011;23739;51.448;6.674;2022-08-19T11:59:54;12.52;;;7.57;;
37905;SDS011;23739;51.448;6.674;2022-08-19T12:02:20;10.55;;;6.97;;
37905;SDS011;23739;51.448;6.674;2022-08-19T12:04:46;6.63;;;5.70;;
37905;SDS011;23739;51.448;6.674;2022-08-19T12:07:13;6.43;;;5.32;;
37905;SDS011;23739;51.448;6.674;2022-08-19T12:09:39;6.47;;;5.88;;
37905;SDS011;23739;51.448;6.674;2022-08-19T12:12:05;8.77;;;5.82;;
37905;SDS011;23739;51.448;6.674;2022-08-19T12:14:31;6.85;;;4.70;;
37905;SDS011;23739;51.448;6.674;2022-08-19T12:16:58;7.93;;;5.97;;
37905;SDS011;23739;51.448;6.674;2022-08-19T12:19:25;7.20;;;5.85;;
37905;SDS011;23739;51.448;6.674;2022-08-19T12:21:51;6.85;;;4.93;;
37905;SDS011;23739;51.448;6.674;2022-08-19T12:24:20;7.80;;;5.07;;
37905;SDS011;23739;51.448;6.674;2022-08-19T12:26:48;5.07;;;3.50;;
37905;SDS011;23739;51.448;6.674;2022-08-19T12:29:14;5.40;;;4.05;;
37905;SDS011;23739;51.448;6.674;2022-08-19T12:31:40;5.82;;;4.43;;
37905;SDS011;23739;51.448;6.674;2022-08-19T12:34:06;5.90;;;4.35;;
37905;SDS011;23739;51.448;6.674;2022-08-19T12:36:33;4.28;;;3.88;;
37905;SDS011;23739;51.448;6.674;2022-08-19T12:38:59;3.85;;;3.13;;
37905;SDS011;23739;51.448;6.674;2022-08-19T12:41:26;4.05;;;3.63;;
37905;SDS011;23739;51.448;6.674;2022-08-19T12:43:52;3.90;;;3.47;;
37905;SDS011;23739;51.448;6.674;2022-08-19T12:46:19;7.95;;;3.83;;
37905;SDS011;23739;51.448;6.674;2022-08-19T12:48:46;3.83;;;3.42;;
37905;SDS011;23739;51.448;6.674;2022-08-19T12:51:13;7.03;;;4.47;;
37905;SDS011;23739;51.448;6.674;2022-08-19T12:53:41;6.00;;;3.60;;
37905;SDS011;23739;51.448;6.674;2022-08-19T12:56:07;4.05;;;3.65;;
37905;SDS011;23739;51.448;6.674;2022-08-19T12:58:34;5.47;;;4.85;;
37905;SDS011;23739;51.448;6.674;2022-08-19T13:01:06;5.63;;;4.13;;
37905;SDS011;23739;51.448;6.674;2022-08-19T13:03:32;6.03;;;3.80;;
37905;SDS011;23739;51.448;6.674;2022-08-19T13:05:58;4.93;;;4.13;;
37905;SDS011;23739;51.448;6.674;2022-08-19T13:08:24;4.68;;;3.92;;
37905;SDS011;23739;51.448;6.674;2022-08-19T13:10:51;8.57;;;4.38;;
37905;SDS011;23739;51.448;6.674;2022-08-19T13:13:18;4.30;;;3.30;;
37905;SDS011;23739;51.448;6.674;2022-08-19T13:15:44;6.88;;;4.60;;
37905;SDS011;23739;51.448;6.674;2022-08-19T13:18:12;7.10;;;4.55;;
37905;SDS011;23739;51.448;6.674;2022-08-19T13:20:42;4.72;;;4.28;;
37905;SDS011;23739;51.448;6.674;2022-08-19T13:23:08;3.83;;;3.47;;
37905;SDS011;23739;51.448;6.674;2022-08-19T13:25:35;7.85;;;4.50;;
37905;SDS011;23739;51.448;6.674;2022-08-19T13:28:02;6.00;;;4.28;;
37905;SDS011;23739;51.448;6.674;2022-08-19T13:30:28;11.20;;;4.70;;
37905;SDS011;23739;51.448;6.674;2022-08-19T13:33:13;5.30;;;4.78;;
37905;SDS011;23739;51.448;6.674;2022-08-19T13:35:44;7.65;;;4.97;;
37905;SDS011;23739;51.448;6.674;2022-08-19T13:38:11;7.57;;;6.03;;
37905;SDS011;23739;51.448;6.674;2022-08-19T13:40:38;6.00;;;4.97;;
37905;SDS011;23739;51.448;6.674;2022-08-19T13:43:05;7.00;;;4.72;;
37905;SDS011;23739;51.448;6.674;2022-08-19T13:45:32;6.35;;;4.53;;
37905;SDS011;23739;51.448;6.674;2022-08-19T13:47:59;8.55;;;5.75;;
37905;SDS011;23739;51.448;6.674;2022-08-19T13:50:31;7.00;;;5.50;;
37905;SDS011;23739;51.448;6.674;2022-08-19T13:52:58;5.95;;;4.30;;
37905;SDS011;23739;51.448;6.674;2022-08-19T13:55:24;5.95;;;5.35;;
37905;SDS011;23739;51.448;6.674;2022-08-19T13:57:53;5.95;;;5.35;;
37905;SDS011;23739;51.448;6.674;2022-08-19T14:00:19;5.50;;;4.55;;
37905;SDS011;23739;51.448;6.674;2022-08-19T14:02:46;6.97;;;5.47;;
37905;SDS011;23739;51.448;6.674;2022-08-19T14:05:14;5.97;;;4.95;;
37905;SDS011;23739;51.448;6.674;2022-08-19T14:07:40;6.20;;;4.72;;
37905;SDS011;23739;51.448;6.674;2022-08-19T14:10:08;7.28;;;5.35;;
37905;SDS011;23739;51.448;6.674;2022-08-19T14:12:35;6.13;;;5.30;;
37905;SDS011;23739;51.448;6.674;2022-08-19T14:15:02;5.57;;;4.50;;
37905;SDS011;23739;51.448;6.674;2022-08-19T14:17:28;5.50;;;4.55;;
37905;SDS011;23739;51.448;6.674;2022-08-19T14:19:58;4.53;;;4.03;;
37905;SDS011;23739;51.448;6.674;2022-08-19T14:22:31;5.13;;;3.97;;
37905;SDS011;23739;51.448;6.674;2022-08-19T14:24:57;6.60;;;3.83;;
37905;SDS011;23739;51.448;6.674;2022-08-19T14:27:23;5.30;;;3.20;;
37905;SDS011;23739;51.448;6.674;2022-08-19T14:29:50;8.50;;;4.13;;
37905;SDS011;23739;51.448;6.674;2022-08-19T14:32:17;4.90;;;3.65;;
37905;SDS011;23739;51.448;6.674;2022-08-19T14:34:43;6.00;;;4.07;;
37905;SDS011;23739;51.448;6.674;2022-08-19T14:37:13;5.18;;;3.58;;
37905;SDS011;23739;51.448;6.674;2022-08-19T14:39:40;3.30;;;2.85;;
37905;SDS011;23739;51.448;6.674;2022-08-19T14:42:07;4.13;;;3.08;;
37905;SDS011;23739;51.448;6.674;2022-08-19T14:44:34;4.88;;;2.78;;